Time;durP1;ratioP1;P1;durP2;ratioP2;P2;SDS_P1;SDS_P2;PMS_P1;PMS_P2;Temp;Humidity;BMP_temperature;BMP_pressure;BME280_temperature;BME280_humidity;BME280_pressure;Samples;Min_cycle;Max_cycle;Signal;HPM_P1;HPM_P2
2023/04/28 00:01:21;;;;;;;33.10;19.50;;;;;;;6.78;59.49;99533.04;223488;183;148196;-72
2023/04/28 00:06:24;;;;;;;30.60;18.40;;;;;;;6.83;58.78;99533.36;223373;183;138835;-72
2023/04/28 00:11:28;;;;;;;32.30;19.00;;;;;;;6.94;58.10;99526.98;223551;184;138379;-71
2023/04/28 00:16:31;;;;;;;30.80;18.20;;;;;;;7.02;58.74;99530.86;223520;184;147596;-72
2023/04/28 00:21:35;;;;;;;33.40;18.60;;;;;;;7.06;58.25;99526.66;223523;184;138497;-72
2023/04/28 00:26:39;;;;;;;36.70;20.40;;;;;;;7.10;58.68;99523.33;223496;180;136792;-73
2023/04/28 00:31:43;;;;;;;33.30;20.00;;;;;;;7.12;59.15;99518.65;223585;184;147903;-73
2023/04/28 00:36:47;;;;;;;39.50;21.90;;;;;;;7.12;58.94;99512.47;223458;184;138100;-72
2023/04/28 00:41:50;;;;;;;33.60;20.60;;;;;;;7.11;59.06;99511.27;223691;184;136661;-73
2023/04/28 00:46:55;;;;;;;36.70;21.50;;;;;;;7.07;59.21;99507.91;223646;184;147234;-73
2023/04/28 00:52:03;;;;;;;35.50;21.20;;;;;;;7.05;59.34;99500.73;223574;184;138271;-73
2023/04/28 00:57:08;;;;;;;37.00;21.20;;;;;;;7.03;59.49;99499.41;223622;184;137200;-73
2023/04/28 01:02:16;;;;;;;36.20;20.50;;;;;;;7.00;59.05;99504.66;223505;184;147697;-73
2023/04/28 01:07:21;;;;;;;34.70;20.90;;;;;;;7.00;59.62;99505.71;223476;184;138368;-73
2023/04/28 01:12:26;;;;;;;36.60;20.40;;;;;;;7.01;59.77;99512.55;222952;184;137158;-73
2023/04/28 01:17:38;;;;;;;36.20;20.70;;;;;;;7.02;59.40;99507.56;223504;183;148093;-73
2023/04/28 01:29:06;;;;;;;38.50;20.30;;;;;;;7.09;59.08;99513.30;223629;184;136744;-72
2023/04/28 01:34:09;;;;;;;33.10;19.20;;;;;;;7.13;59.68;99519.14;223092;184;147484;-73
2023/04/28 01:39:13;;;;;;;30.20;18.10;;;;;;;7.09;59.60;99523.19;223459;184;139450;-74
2023/04/28 01:44:17;;;;;;;33.40;17.60;;;;;;;7.12;58.87;99520.96;223540;184;137226;-73
2023/04/28 01:49:23;;;;;;;29.80;16.90;;;;;;;7.15;58.41;99522.42;223526;184;147134;-72
2023/04/28 01:54:27;;;;;;;27.90;17.50;;;;;;;7.18;58.57;99514.85;223342;183;139735;-72
2023/04/28 01:59:31;;;;;;;27.80;16.40;;;;;;;7.20;58.13;99514.45;223635;183;137276;-73
2023/04/28 02:04:34;;;;;;;29.20;16.60;;;;;;;7.25;57.94;99513.50;223726;184;147652;-74
2023/04/28 02:21:50;;;;;;;29.10;15.80;;;;;;;7.44;58.27;99517.54;223675;184;147346;-73
2023/04/28 02:26:54;;;;;;;29.90;15.40;;;;;;;7.46;57.79;99514.79;223526;184;138421;-73
2023/04/28 02:31:58;;;;;;;29.50;15.80;;;;;;;7.48;58.15;99509.25;223639;184;137075;-73
2023/04/28 02:37:10;;;;;;;27.20;14.60;;;;;;;7.47;57.54;99512.99;223556;185;283237;-79
2023/04/28 02:42:13;;;;;;;62.00;32.60;;;;;;;7.54;57.49;99512.51;223638;184;138150;-73
2023/04/28 02:47:17;;;;;;;57.30;31.10;;;;;;;7.63;57.56;99515.67;223553;184;136974;-73
2023/04/28 02:52:20;;;;;;;30.80;15.60;;;;;;;7.58;57.75;99515.16;223574;184;147804;-72
2023/04/28 02:57:24;;;;;;;37.10;15.80;;;;;;;7.64;58.24;99511.73;223343;184;138422;-72
2023/04/28 03:02:27;;;;;;;49.80;17.20;;;;;;;7.61;58.41;99509.59;222870;183;137178;-72
2023/04/28 03:07:31;;;;;;;31.60;17.10;;;;;;;7.55;57.79;99515.08;221313;184;147194;-72
2023/04/28 03:12:34;;;;;;;31.90;16.60;;;;;;;7.52;57.22;99509.92;222730;184;139090;-73
2023/04/28 03:17:40;;;;;;;109.40;64.20;;;;;;;7.51;58.25;99510.50;222479;184;137094;-73
2023/04/28 03:22:44;;;;;;;42.40;19.10;;;;;;;7.59;57.72;99514.25;223554;184;149616;-73
2023/04/28 03:27:47;;;;;;;39.70;17.40;;;;;;;7.55;57.93;99513.32;223360;184;138487;-73
2023/04/28 03:32:51;;;;;;;30.20;17.30;;;;;;;7.49;58.23;99519.80;223581;184;136932;-73
2023/04/28 03:37:54;;;;;;;35.60;17.90;;;;;;;7.44;58.67;99518.93;223570;184;147497;-74
2023/04/28 03:42:58;;;;;;;39.80;19.10;;;;;;;7.40;59.17;99518.05;223487;184;138861;-73
2023/04/28 03:48:08;;;;;;;44.00;19.80;;;;;;;7.37;59.35;99521.50;223517;184;136972;-73
2023/04/28 03:53:11;;;;;;;68.80;37.30;;;;;;;7.32;59.86;99523.99;223318;184;148101;-73
2023/04/28 03:58:15;;;;;;;35.60;19.30;;;;;;;7.36;60.13;99524.02;222842;184;138729;-74
2023/04/28 04:03:21;;;;;;;38.20;20.10;;;;;;;7.28;60.35;99525.59;223520;184;137197;-73
2023/04/28 04:08:25;;;;;;;40.30;20.00;;;;;;;7.21;60.44;99529.04;223582;184;147752;-73
2023/04/28 04:13:28;;;;;;;38.80;19.70;;;;;;;7.15;60.78;99528.05;223529;184;138205;-73
2023/04/28 04:18:32;;;;;;;38.70;19.80;;;;;;;7.11;61.15;99527.31;223446;183;138006;-72
2023/04/28 04:24:05;;;;;;;38.30;19.80;;;;;;;7.06;61.29;99528.77;223538;184;149388;-72
2023/04/28 04:29:09;;;;;;;35.90;19.50;;;;;;;7.00;61.58;99525.48;223526;184;138431;-71
2023/04/28 04:34:14;;;;;;;35.90;19.10;;;;;;;6.98;61.93;99525.72;223478;184;136778;-72
2023/04/28 04:39:18;;;;;;;38.70;20.30;;;;;;;7.02;62.05;99526.96;223653;184;147987;-71
2023/04/28 04:44:23;;;;;;;42.30;20.40;;;;;;;7.02;61.92;99521.48;223634;183;138644;-72
2023/04/28 04:49:29;;;;;;;36.90;21.00;;;;;;;7.08;62.19;99522.34;223499;184;136703;-72
2023/04/28 04:54:41;;;;;;;37.30;19.60;;;;;;;7.18;62.04;99513.29;223525;184;147115;-73
2023/04/28 04:59:45;;;;;;;35.90;19.70;;;;;;;7.27;61.96;99517.35;223592;184;138237;-72
2023/04/28 05:04:51;;;;;;;37.20;18.60;;;;;;;7.37;62.02;99513.77;223611;184;137041;-72
2023/04/28 05:09:59;;;;;;;33.40;18.70;;;;;;;7.49;60.93;99514.83;223466;184;146514;-71
2023/04/28 05:15:07;;;;;;;31.80;18.30;;;;;;;7.64;60.81;99515.80;223386;184;138986;-76
2023/04/28 05:20:13;;;;;;;32.00;17.10;;;;;;;7.80;60.50;99512.79;220780;184;137602;-73
2023/04/28 05:25:17;;;;;;;27.30;15.00;;;;;;;7.96;59.03;99513.87;222581;184;146861;-73
2023/04/28 05:30:20;;;;;;;30.60;14.00;;;;;;;8.22;57.51;99512.92;223518;183;138405;-73
2023/04/28 05:35:25;;;;;;;24.70;13.80;;;;;;;8.43;55.50;99515.19;223517;184;136948;-73
2023/04/28 05:40:28;;;;;;;23.20;12.40;;;;;;;8.62;54.62;99508.27;223080;184;147670;-73
2023/04/28 05:45:32;;;;;;;19.90;10.90;;;;;;;8.78;53.50;99505.05;223528;184;138948;-73
2023/04/28 05:50:35;;;;;;;26.80;12.60;;;;;;;8.92;52.61;99507.91;223543;183;137193;-73
2023/04/28 05:55:41;;;;;;;21.30;12.40;;;;;;;9.18;52.63;99511.31;223555;183;147549;-73
2023/04/28 06:00:45;;;;;;;21.80;12.30;;;;;;;9.35;51.81;99512.39;223282;185;138874;-73
2023/04/28 06:05:49;;;;;;;21.50;10.80;;;;;;;9.49;50.73;99509.60;223543;184;137385;-72
2023/04/28 06:10:53;;;;;;;17.70;10.80;;;;;;;9.52;49.76;99512.97;223527;184;147885;-73
2023/04/28 06:15:57;;;;;;;15.30;9.40;;;;;;;9.61;49.61;99519.41;223409;184;139018;-73
2023/04/28 06:21:01;;;;;;;18.30;9.90;;;;;;;9.80;48.48;99518.80;223366;184;246324;-73
2023/04/28 06:26:04;;;;;;;15.00;9.50;;;;;;;9.91;47.69;99514.70;223597;184;147823;-73
2023/04/28 06:31:08;;;;;;;17.60;10.50;;;;;;;9.98;47.90;99512.55;222970;184;138969;-73
2023/04/28 06:36:12;;;;;;;17.50;9.60;;;;;;;10.10;47.80;99512.84;223471;184;137515;-73
2023/04/28 06:41:16;;;;;;;15.90;10.40;;;;;;;10.31;46.85;99509.45;223496;184;147560;-73
2023/04/28 06:46:23;;;;;;;18.80;10.50;;;;;;;10.45;46.53;99511.90;223434;184;139757;-73
2023/04/28 06:51:27;;;;;;;19.80;10.00;;;;;;;10.60;46.67;99510.57;223485;184;140133;-74
2023/04/28 06:56:31;;;;;;;19.80;10.20;;;;;;;10.79;46.08;99513.06;223414;184;147537;-73
2023/04/28 07:01:35;;;;;;;22.90;10.00;;;;;;;10.97;45.92;99502.45;222102;184;139089;-74
2023/04/28 07:06:39;;;;;;;24.00;10.20;;;;;;;11.17;45.08;99490.66;222988;183;137802;-72
2023/04/28 07:11:43;;;;;;;20.60;10.70;;;;;;;11.32;44.79;99484.83;223547;184;148007;-71
2023/04/28 07:16:46;;;;;;;18.80;9.80;;;;;;;11.48;45.68;99486.59;223389;184;138984;-71
2023/04/28 07:22:04;;;;;;;20.30;9.00;;;;;;;11.69;45.09;99482.31;223562;184;138443;-72
2023/04/28 07:27:07;;;;;;;14.70;8.20;;;;;;;11.87;44.43;99476.59;223557;184;147514;-72
2023/04/28 07:32:11;;;;;;;18.80;8.10;;;;;;;12.03;43.58;99474.03;223245;184;138774;-71
2023/04/28 07:37:15;;;;;;;14.60;8.20;;;;;;;12.16;43.54;99464.90;223493;184;138296;-72
2023/04/28 07:42:19;;;;;;;13.10;6.50;;;;;;;12.27;42.94;99459.43;222119;184;146472;-73
2023/04/28 07:47:22;;;;;;;9.90;5.80;;;;;;;12.44;42.17;99452.13;221562;184;139307;-73
2023/04/28 07:52:26;;;;;;;9.00;5.40;;;;;;;12.57;40.13;99450.21;223404;184;137553;-72
2023/04/28 07:57:30;;;;;;;10.10;5.30;;;;;;;12.69;38.80;99444.65;223579;183;147967;-72
2023/04/28 08:02:33;;;;;;;8.00;4.20;;;;;;;12.85;38.67;99438.30;223276;188;139299;-72
2023/04/28 08:07:37;;;;;;;11.60;4.90;;;;;;;12.98;38.22;99434.45;223261;184;136932;-71
2023/04/28 08:12:41;;;;;;;9.40;4.60;;;;;;;13.10;38.21;99437.49;223490;184;147155;-72
2023/04/28 08:17:44;;;;;;;106.60;73.70;;;;;;;13.42;40.29;99433.84;223143;184;138559;-74
2023/04/28 08:22:47;;;;;;;7.70;3.90;;;;;;;14.06;40.97;99428.15;223255;184;138695;-71
2023/04/28 08:27:51;;;;;;;9.30;3.50;;;;;;;14.06;36.91;99426.71;223515;184;148557;-72
2023/04/28 08:32:56;;;;;;;;;;;;;;;14.01;36.72;99420.56;223439;183;138649;-71
2023/04/28 08:38:00;;;;;;;8.40;3.60;;;;;;;13.94;35.86;99420.27;223303;184;130759;-72
2023/04/28 08:43:03;;;;;;;6.80;3.00;;;;;;;13.90;34.50;99418.58;223550;184;149168;-71
2023/04/28 08:48:20;;;;;;;11.30;3.20;;;;;;;13.87;33.82;99416.11;223243;184;138879;-71
2023/04/28 08:53:25;;;;;;;39.70;26.10;;;;;;;13.93;33.20;99414.48;223049;218;137991;-70
2023/04/28 08:58:30;;;;;;;5.80;3.20;;;;;;;14.02;33.43;99411.49;223495;184;148311;-71
2023/04/28 09:03:33;;;;;;;8.10;3.40;;;;;;;14.11;33.67;99409.23;223288;184;138440;-72
2023/04/28 09:08:36;;;;;;;6.90;3.50;;;;;;;14.27;34.03;99409.24;223292;184;137972;-72
2023/04/28 09:13:40;;;;;;;8.70;3.10;;;;;;;14.44;33.20;99396.41;223520;180;147921;-72
2023/04/28 09:18:59;;;;;;;9.80;3.20;;;;;;;14.59;33.08;99394.58;223223;185;138905;-72
2023/04/28 09:24:04;;;;;;;10.40;3.00;;;;;;;14.70;32.22;99386.86;221790;185;139464;-72
2023/04/28 09:29:13;;;;;;;6.80;3.30;;;;;;;14.77;31.97;99388.83;223108;184;147534;-73
2023/04/28 09:34:17;;;;;;;9.90;3.10;;;;;;;14.90;32.25;99381.81;223304;184;138358;-73
2023/04/28 09:39:29;;;;;;;7.20;3.10;;;;;;;15.08;33.24;99367.60;223164;185;137972;-73
2023/04/28 09:44:32;;;;;;;9.60;3.30;;;;;;;15.17;32.54;99366.90;222718;184;148954;-72
2023/04/28 09:49:53;;;;;;;8.50;3.00;;;;;;;15.33;31.44;99362.06;223424;183;138461;-72
2023/04/28 09:54:57;;;;;;;6.30;3.10;;;;;;;15.52;31.10;99355.49;223209;218;137305;-72
2023/04/28 10:00:04;;;;;;;9.10;3.90;;;;;;;15.73;31.83;99347.98;223100;195;285267;-72
2023/04/28 10:05:08;;;;;;;6.00;3.10;;;;;;;15.92;32.62;99338.02;223271;184;139129;-72
2023/04/28 10:10:19;;;;;;;8.30;3.60;;;;;;;16.12;32.29;99328.96;223101;184;137979;-72
2023/04/28 10:15:23;;;;;;;8.30;3.70;;;;;;;16.34;31.18;99323.39;223204;207;149842;-71
2023/04/28 10:20:32;;;;;;;7.40;3.90;;;;;;;16.60;31.14;99318.73;223251;185;138934;-72
2023/04/28 10:25:37;;;;;;;69.80;47.80;;;;;;;16.89;34.14;99312.95;223032;218;137957;-79
2023/04/28 10:30:41;;;;;;;8.10;4.00;;;;;;;17.32;32.48;99314.22;223395;184;149004;-71
2023/04/28 10:35:46;;;;;;;6.80;3.50;;;;;;;17.35;29.70;99308.21;223275;189;138863;-71
2023/04/28 10:40:59;;;;;;;;;;;;;;;17.35;29.11;99299.88;223234;185;138106;-71
2023/04/28 10:46:05;;;;;;;8.20;3.70;;;;;;;17.52;28.51;99292.92;223402;184;148894;-71
2023/04/28 10:51:09;;;;;;;9.30;3.80;;;;;;;17.57;28.82;99276.85;223224;184;139437;-71
2023/04/28 10:56:23;;;;;;;10.60;4.50;;;;;;;17.86;29.88;99266.41;223183;185;136952;-71
2023/04/28 11:01:33;;;;;;;10.30;5.00;;;;;;;18.19;29.09;99264.08;222335;184;149735;-74
2023/04/28 11:06:44;;;;;;;5.90;3.90;;;;;;;17.97;27.54;99262.58;223219;218;138394;-71
2023/04/28 11:11:56;;;;;;;7.60;3.50;;;;;;;17.79;28.37;99249.79;223074;184;137008;-72
2023/04/28 11:17:05;;;;;;;11.70;3.60;;;;;;;18.21;29.22;99244.80;223328;184;149130;-70
2023/04/28 11:22:20;;;;;;;6.90;3.50;;;;;;;18.55;28.79;99241.17;223140;185;138738;-71
2023/04/28 11:27:25;;;;;;;10.10;4.90;;;;;;;18.88;27.29;99229.49;223207;218;137953;-71
2023/04/28 11:32:31;;;;;;;24.50;12.10;;;;;;;19.04;28.55;99226.94;223295;184;149253;-74
2023/04/28 11:37:35;;;;;;;8.80;5.20;;;;;;;19.25;33.11;99230.02;223103;218;138486;-75
2023/04/28 11:42:48;;;;;;;8.80;5.10;;;;;;;19.36;31.17;99222.61;223204;211;138025;-75
2023/04/28 11:47:52;;;;;;;7.20;3.60;;;;;;;19.58;31.32;99214.76;223370;184;149651;-70
2023/04/28 11:52:55;;;;;;;12.20;4.00;;;;;;;19.84;29.17;99205.02;223293;183;138958;-69
2023/04/28 11:58:24;;;;;;;7.00;3.20;;;;;;;20.09;27.64;99203.11;223458;184;139598;-69
2023/04/28 12:03:27;;;;;;;7.30;3.50;;;;;;;20.16;26.14;99191.33;223259;185;149111;-69
2023/04/28 12:08:30;;;;;;;8.90;3.20;;;;;;;20.35;26.33;99178.70;223257;193;139704;-70
2023/04/28 12:13:35;;;;;;;8.90;3.90;;;;;;;20.63;26.47;99176.98;223334;184;138888;-68
2023/04/28 12:18:57;;;;;;;7.70;3.40;;;;;;;20.85;24.97;99171.69;223418;183;149246;-70
2023/04/28 12:24:14;;;;;;;7.70;3.20;;;;;;;20.90;24.18;99159.15;223255;217;153220;-71
2023/04/28 12:29:39;;;;;;;9.80;3.10;;;;;;;20.99;25.27;99153.86;223411;183;139330;-70
2023/04/28 12:34:45;;;;;;;6.40;3.20;;;;;;;21.15;24.11;99144.77;223378;210;150097;-72
2023/04/28 12:39:49;;;;;;;6.30;3.20;;;;;;;21.22;23.66;99140.30;223290;217;139929;-71
2023/04/28 12:44:52;;;;;;;6.10;3.30;;;;;;;21.13;23.53;99131.90;223415;195;138663;-72
2023/04/28 12:49:55;;;;;;;6.30;3.10;;;;;;;21.07;23.88;99119.68;223435;217;148990;-71
2023/04/28 12:54:58;;;;;;;9.10;3.60;;;;;;;21.20;23.46;99119.05;223355;217;138422;-72
2023/04/28 13:00:02;;;;;;;7.20;3.70;;;;;;;21.27;24.03;99107.10;223386;183;137268;-71
2023/04/28 13:05:06;;;;;;;11.10;3.40;;;;;;;21.59;24.32;99103.20;223450;183;149371;-72
2023/04/28 13:10:09;;;;;;;6.90;3.40;;;;;;;21.74;23.32;99100.11;223369;217;139260;-72
2023/04/28 13:15:12;;;;;;;5.90;3.70;;;;;;;21.83;23.21;99096.27;223344;217;138703;-72
2023/04/28 13:20:16;;;;;;;6.80;3.80;;;;;;;21.95;23.99;99092.64;223359;194;148980;-70
2023/04/28 13:25:19;;;;;;;6.40;3.20;;;;;;;22.20;23.77;99086.86;223377;217;138192;-71
2023/04/28 13:30:22;;;;;;;8.10;3.60;;;;;;;22.36;24.62;99080.02;223340;217;138708;-68
2023/04/28 13:35:26;;;;;;;7.50;3.20;;;;;;;22.30;26.42;99070.54;223366;183;157034;-69
2023/04/28 13:40:33;;;;;;;7.90;3.00;;;;;;;22.40;26.46;99063.48;223249;206;140538;-68
2023/04/28 13:45:36;;;;;;;6.50;3.30;;;;;;;22.40;25.68;99056.04;223268;183;137823;-70
2023/04/28 13:50:39;;;;;;;7.20;3.50;;;;;;;22.44;24.64;99053.45;223405;183;150112;-68
2023/04/28 13:55:42;;;;;;;7.20;3.00;;;;;;;22.36;24.44;99047.04;223361;183;138444;-69
2023/04/28 14:00:46;;;;;;;8.60;3.10;;;;;;;22.30;24.38;99045.09;223443;183;137548;-69
2023/04/28 14:05:55;;;;;;;9.00;2.90;;;;;;;22.28;24.38;99044.61;223331;183;149200;-67
2023/04/28 14:10:59;;;;;;;5.70;2.70;;;;;;;22.34;23.88;99031.77;223221;216;138257;-68
2023/04/28 14:16:03;;;;;;;8.90;3.90;;;;;;;22.18;23.23;99017.77;223322;183;139806;-68
2023/04/28 14:25:37;;;;;;;8.70;4.90;;;;;;;22.28;25.90;99007.55;219116;195;677086;-73
2023/04/28 14:30:40;;;;;;;8.30;4.20;;;;;;;22.20;26.18;99003.16;220045;222;137920;-70
2023/04/28 14:35:44;;;;;;;7.50;3.40;;;;;;;21.92;26.02;99000.72;221669;187;144727;-72
2023/04/28 14:40:47;;;;;;;7.40;3.20;;;;;;;21.68;26.70;98995.31;223064;186;140049;-72
2023/04/28 14:45:51;;;;;;;10.00;3.30;;;;;;;21.48;27.14;98994.91;223102;186;137106;-72
2023/04/28 14:50:56;;;;;;;10.20;3.50;;;;;;;21.29;26.83;98996.64;223328;185;143296;-70
2023/04/28 14:55:59;;;;;;;4.80;3.10;;;;;;;20.98;26.61;98998.64;223289;218;138410;-70
2023/04/28 15:01:23;;;;;;;6.50;3.00;;;;;;;20.73;27.36;98999.81;223369;218;136395;-70
2023/04/28 15:06:27;;;;;;;9.60;3.10;;;;;;;20.53;27.41;98994.20;223382;184;143952;-69
2023/04/28 15:11:31;;;;;;;6.00;3.00;;;;;;;20.37;27.80;98988.61;223312;184;138478;-70
2023/04/28 15:16:34;;;;;;;4.70;2.60;;;;;;;20.20;27.92;98989.81;223330;188;137501;-73
2023/04/28 15:21:37;;;;;;;9.60;3.00;;;;;;;20.10;28.95;98987.40;223275;218;145708;-71
2023/04/28 15:26:41;;;;;;;8.50;3.00;;;;;;;20.06;30.01;98983.18;223130;184;139847;-70
2023/04/28 15:31:44;;;;;;;6.30;4.10;;;;;;;20.08;29.78;98983.65;223255;186;136393;-65
2023/04/28 15:36:52;;;;;;;10.20;3.90;;;;;;;20.05;29.71;98984.13;223256;185;145994;-69
2023/04/28 15:41:58;;;;;;;7.50;3.90;;;;;;;20.02;29.62;98982.98;223207;185;138406;-68
2023/04/28 15:47:01;;;;;;;6.10;3.10;;;;;;;20.10;29.46;98979.83;223203;185;137677;-67
2023/04/28 15:52:04;;;;;;;8.10;2.70;;;;;;;20.34;28.62;98977.98;223241;219;145732;-67
2023/04/28 15:57:08;;;;;;;6.20;2.50;;;;;;;20.43;28.54;98977.87;223154;184;138491;-68
2023/04/28 16:02:11;;;;;;;14.80;10.10;;;;;;;20.43;28.31;98973.34;223045;184;137047;-69
2023/04/28 16:07:14;;;;;;;10.40;6.80;;;;;;;20.27;27.71;98968.70;223257;184;145855;-72
2023/04/28 16:12:17;;;;;;;7.70;3.90;;;;;;;20.02;27.87;98962.52;223126;184;137882;-69
2023/04/28 16:17:21;;;;;;;5.10;2.80;;;;;;;19.80;28.10;98966.02;223214;189;137734;-70
2023/04/28 16:22:24;;;;;;;6.70;3.70;;;;;;;19.55;28.05;98964.00;223233;218;145267;-70
2023/04/28 16:27:28;;;;;;;105.30;67.30;;;;;;;19.39;28.92;98951.20;223128;185;139585;-69
2023/04/28 16:32:34;;;;;;;19.60;15.00;;;;;;;19.33;29.51;98950.51;223096;191;139579;-68
2023/04/28 16:37:39;;;;;;;10.00;7.60;;;;;;;19.30;29.26;98944.39;223142;185;144984;-68
2023/04/28 16:42:44;;;;;;;11.50;5.90;;;;;;;19.20;29.38;98945.77;223415;184;138321;-69
2023/04/28 16:47:58;;;;;;;6.10;3.80;;;;;;;19.03;29.32;98942.38;223416;183;137345;-70
2023/04/28 16:53:02;;;;;;;51.90;41.80;;;;;;;18.85;30.03;98947.23;223375;183;146107;-68
2023/04/28 16:58:05;;;;;;;8.30;4.80;;;;;;;18.78;30.37;98936.26;223370;182;138510;-70
2023/04/28 17:03:08;;;;;;;7.30;2.70;;;;;;;18.50;29.31;98938.32;223493;183;136943;-70
2023/04/28 17:08:11;;;;;;;5.60;2.60;;;;;;;18.14;29.22;98929.96;223473;183;145364;-69
2023/04/28 17:13:14;;;;;;;7.10;2.60;;;;;;;17.86;29.90;98935.08;223295;211;138365;-70
2023/04/28 17:18:17;;;;;;;7.50;2.40;;;;;;;17.63;29.89;98939.51;223465;182;137184;-68
2023/04/28 17:23:21;;;;;;;125.20;102.30;;;;;;;17.41;30.02;98940.34;223413;182;145561;-68
2023/04/28 17:28:24;;;;;;;18.20;9.50;;;;;;;17.28;31.02;98944.55;223368;183;138350;-68
2023/04/28 17:33:28;;;;;;;22.70;13.80;;;;;;;17.15;32.10;98943.25;223415;217;137400;-68
2023/04/28 17:38:31;;;;;;;20.80;12.60;;;;;;;17.20;32.33;98942.95;223387;182;145330;-67
2023/04/28 17:43:38;;;;;;;9.10;3.40;;;;;;;17.05;31.96;98931.77;223312;210;138187;-68
2023/04/28 17:48:41;;;;;;;7.40;3.50;;;;;;;16.89;32.25;98920.16;223374;183;137345;-69
2023/04/28 17:53:47;;;;;;;17.90;10.70;;;;;;;16.71;31.88;98917.97;223441;183;145438;-69
2023/04/28 17:58:51;;;;;;;8.40;3.30;;;;;;;16.60;31.80;98913.42;223350;183;138497;-69
2023/04/28 18:04:05;;;;;;;7.80;3.00;;;;;;;16.49;31.84;98920.80;223547;184;136491;-69
2023/04/28 18:09:08;;;;;;;8.80;3.40;;;;;;;16.31;31.59;98927.41;223482;183;145301;-70
2023/04/28 18:14:14;;;;;;;5.40;3.40;;;;;;;16.14;32.21;98925.70;223468;217;138737;-70
2023/04/28 18:19:17;;;;;;;6.40;3.50;;;;;;;15.96;32.14;98918.42;223446;217;137199;-72
2023/04/28 18:24:21;;;;;;;9.10;3.90;;;;;;;15.86;32.34;98922.90;223495;183;145632;-71
2023/04/28 18:29:24;;;;;;;9.50;5.00;;;;;;;15.74;32.80;98931.63;223394;183;138388;-72
2023/04/28 18:34:28;;;;;;;8.00;4.60;;;;;;;15.63;33.24;98934.15;223362;184;137314;-73
2023/04/28 18:39:31;;;;;;;9.30;5.40;;;;;;;15.57;33.15;98943.59;223479;183;147328;-73
2023/04/28 18:44:34;;;;;;;12.20;5.30;;;;;;;15.49;33.26;98943.89;223381;183;139166;-72
2023/04/28 18:49:38;;;;;;;11.90;5.00;;;;;;;15.43;33.37;98945.67;223397;182;139764;-73
2023/04/28 18:54:42;;;;;;;12.20;5.90;;;;;;;15.37;33.75;98945.39;223511;183;146317;-73
2023/04/28 18:59:45;;;;;;;11.70;5.50;;;;;;;15.32;33.89;98948.89;223330;184;139793;-73
2023/04/28 19:04:50;;;;;;;9.80;5.80;;;;;;;15.23;33.85;98948.41;223525;183;140541;-75
2023/04/28 19:09:53;;;;;;;11.30;5.60;;;;;;;15.15;34.19;98947.45;223517;182;145167;-72
2023/04/28 19:14:57;;;;;;;7.60;5.10;;;;;;;15.08;34.24;98946.77;223483;184;138441;-72
2023/04/28 19:20:00;;;;;;;10.00;5.70;;;;;;;15.03;34.31;98944.29;223436;183;136738;-74
2023/04/28 19:25:05;;;;;;;9.90;5.30;;;;;;;15.02;34.29;98946.20;223490;182;145380;-70
2023/04/28 19:30:11;;;;;;;69.80;53.10;;;;;;;15.02;35.82;98936.70;223416;183;138399;-70
2023/04/28 19:35:14;;;;;;;11.30;6.00;;;;;;;15.07;34.84;98934.13;223461;182;141005;-69
2023/04/28 19:40:18;;;;;;;11.20;5.90;;;;;;;14.98;34.99;98928.42;223468;183;145072;-67
2023/04/28 19:45:21;;;;;;;10.00;6.00;;;;;;;14.85;35.65;98923.78;223507;182;139130;-67
2023/04/28 19:50:24;;;;;;;8.50;5.30;;;;;;;14.71;35.78;98925.29;223541;183;137692;-70
2023/04/28 19:55:28;;;;;;;10.30;5.40;;;;;;;14.58;36.01;98923.13;223540;184;145317;-69
2023/04/28 20:00:31;;;;;;;8.70;5.60;;;;;;;14.47;36.41;98920.61;223606;182;138385;-67
2023/04/28 20:05:37;;;;;;;9.40;6.00;;;;;;;14.35;36.64;98923.12;223592;182;136842;-68
2023/04/28 20:10:41;;;;;;;10.90;6.30;;;;;;;14.22;37.16;98913.63;223574;182;145419;-68
2023/04/28 20:15:44;;;;;;;12.10;6.20;;;;;;;14.12;37.27;98908.41;223382;182;137953;-67
2023/04/28 20:20:50;;;;;;;13.50;6.00;;;;;;;14.02;37.38;98909.93;223576;183;141420;-67
2023/04/28 20:25:54;;;;;;;11.50;6.00;;;;;;;13.89;37.39;98910.30;223543;182;145315;-67
2023/04/28 20:30:57;;;;;;;11.00;6.30;;;;;;;13.78;37.69;98908.54;223455;183;140104;-66
2023/04/28 20:36:00;;;;;;;12.00;5.80;;;;;;;13.66;38.02;98910.14;223430;183;138159;-68
2023/04/28 20:41:04;;;;;;;9.30;5.90;;;;;;;13.52;38.31;98910.67;223536;183;146460;-65
2023/04/28 20:46:12;;;;;;;13.20;7.00;;;;;;;13.45;38.73;98906.94;223467;182;138175;-66
2023/04/28 20:51:16;;;;;;;12.40;6.50;;;;;;;13.44;38.80;98904.52;223560;182;139802;-65
2023/04/28 20:56:19;;;;;;;11.30;6.80;;;;;;;13.41;39.26;98900.27;223519;183;145406;-65
2023/04/28 21:01:22;;;;;;;12.90;6.80;;;;;;;13.34;39.73;98895.68;223501;183;139506;-65
2023/04/28 21:06:25;;;;;;;13.40;6.80;;;;;;;13.23;40.31;98893.27;223569;183;136970;-68
2023/04/28 21:11:28;;;;;;;13.00;7.50;;;;;;;13.14;40.31;98892.14;223562;183;145493;-66
2023/04/28 21:16:32;;;;;;;12.60;6.60;;;;;;;13.07;40.75;98893.56;223506;217;139398;-67
2023/04/28 21:21:36;;;;;;;12.30;7.30;;;;;;;12.98;40.98;98897.83;223593;183;137221;-69
2023/04/28 21:26:39;;;;;;;13.30;6.70;;;;;;;12.87;41.42;98898.27;223599;182;146680;-68
2023/04/28 21:31:43;;;;;;;16.30;7.30;;;;;;;12.74;41.67;98897.60;223437;183;139991;-66
2023/04/28 21:36:46;;;;;;;14.50;7.20;;;;;;;12.63;42.05;98898.42;223526;183;137523;-66
2023/04/28 21:41:49;;;;;;;16.60;8.00;;;;;;;12.56;42.88;98899.48;223531;183;145772;-65
2023/04/28 21:46:52;;;;;;;13.00;7.50;;;;;;;12.59;42.72;98901.58;223499;183;138472;-64
2023/04/28 21:51:55;;;;;;;16.60;8.10;;;;;;;12.59;42.69;98900.83;223516;182;137545;-66
2023/04/28 21:56:58;;;;;;;13.20;7.20;;;;;;;12.44;42.71;98898.75;223610;182;145316;-64
2023/04/28 22:02:01;;;;;;;15.90;7.60;;;;;;;12.36;43.11;98901.08;223445;183;149544;-69
2023/04/28 22:07:05;;;;;;;15.00;7.90;;;;;;;12.36;43.52;98895.76;223713;182;137316;-70
2023/04/28 22:12:08;;;;;;;14.40;7.70;;;;;;;12.37;43.50;98892.27;223599;183;145999;-70
2023/04/28 22:17:11;;;;;;;18.70;8.60;;;;;;;12.27;43.93;98891.39;223732;183;139096;-67
2023/04/28 22:22:14;;;;;;;14.80;7.30;;;;;;;12.20;44.34;98889.59;223735;182;136739;-66
2023/04/28 22:27:18;;;;;;;14.80;7.70;;;;;;;12.13;44.67;98882.80;223724;182;146036;-66
2023/04/28 22:32:21;;;;;;;19.20;7.50;;;;;;;12.07;45.33;98881.05;223656;183;138131;-68
2023/04/28 22:37:24;;;;;;;18.50;8.40;;;;;;;12.03;45.31;98885.41;223714;182;137453;-68
2023/04/28 22:42:28;;;;;;;13.70;7.20;;;;;;;11.98;45.53;98880.77;223711;182;145300;-69
2023/04/28 22:47:35;;;;;;;16.80;8.00;;;;;;;11.93;45.65;98881.16;223619;183;138176;-65
2023/04/28 22:52:38;;;;;;;16.70;7.50;;;;;;;11.90;45.94;98878.00;223690;183;136731;-64
2023/04/28 22:57:41;;;;;;;19.00;8.30;;;;;;;11.90;46.01;98880.73;223844;182;147910;-64
2023/04/28 23:02:44;;;;;;;15.80;8.00;;;;;;;11.86;46.78;98881.15;223759;182;139696;-64
2023/04/28 23:07:48;;;;;;;14.80;8.10;;;;;;;11.85;46.59;98883.34;223664;183;137999;-68
2023/04/28 23:12:51;;;;;;;15.00;8.80;;;;;;;11.84;46.74;98884.13;223643;183;146783;-66
2023/04/28 23:17:54;;;;;;;16.50;8.20;;;;;;;11.80;47.08;98878.48;223581;182;138909;-65
2023/04/28 23:22:58;;;;;;;17.00;8.00;;;;;;;11.77;47.22;98873.06;223756;183;138227;-68
2023/04/28 23:28:01;;;;;;;13.20;8.00;;;;;;;11.75;47.60;98869.08;223658;182;147098;-68
2023/04/28 23:33:04;;;;;;;14.70;8.30;;;;;;;11.73;47.70;98862.08;223737;183;138343;-69
2023/04/28 23:38:07;;;;;;;15.90;8.60;;;;;;;11.71;47.51;98864.02;223685;183;137534;-68
2023/04/28 23:43:11;;;;;;;17.30;9.00;;;;;;;11.66;47.49;98858.34;223586;183;148212;-67
2023/04/28 23:48:14;;;;;;;15.50;9.20;;;;;;;11.57;47.67;98857.68;223705;183;138294;-65